Meridian, MS (39302)

5:44 PM CDT on April 26, 2015 (GMT -0500)
3.2 NW Meridian (Pine Springs Rd.) | | Change Station
CLOSE
Current Station
Personal Weather Station
Location: Meridian, MS
Elevation: 328 ft
Nearby Weather Stations

Elev 328 ft 32.42 °N, 88.75 °W | Updated 4 minutes ago

Partly Cloudy
Partly Cloudy
84.1 °F
Feels Like 86 °F
N
0.0
Wind Variable Wind from North
Gusts 5.0 mph

Today
High -- | Low -- °F
--% Chance of Precip.
Yesterday
High -- | Low -- °F
Precip. -- in
6:13 AM 7:32 PM
First Quarter, 59% visible
Pressure 29.71 in
Visibility 10.0 miles
Clouds Clear
Heat Index 86 °F
Dew Point 65 °F
Humidity 53%
Rainfall 0.00 in
Snow Depth Not available.
UV 3 out of 12
Pollen 8.80 out of 12
Air Quality Not available.
Flu Activity No Activity
METAR KMEI 262158Z 32007KT 10SM CLR 29/12 A2971 RMK AO2 SLP059 T02890122

More Conditions Fewer Conditions

Pressure 29.71 in
Visibility 10.0 miles
Clouds Clear
Heat Index 86 °F
Dew Point 65 °F
Humidity 53%
Rainfall 0.00 in
Snow Depth Not available.
UV 3 out of 12
Pollen 8.80 out of 12
Air Quality Not available.
Flu Activity No Activity
METAR KMEI 262158Z 32007KT 10SM CLR 29/12 A2971 RMK AO2 SLP059 T02890122

More Conditions Fewer Conditions

The full scope of the disaster following a powerful 7.8-magnitude earthquake in Nepal may not come into view for days, but global charities are already sending emergency aid. Click to see how you can help.

10-Day Weather Forecast

Almanac

Astronomy

Apr. 26, 2015 Rise Set
Actual Time
Civil Twilight
Nautical Twilight
Astronomical Twilight
Moon
Length of Visible Light
Length of Day
Tomorrow will be .
, % of the Moon is Illuminated

Today's Extremes

State Highs State Lows

Community

WunderPhotos

Upload Photos

1,817,149 photos uploaded!

WunderBlogs® & News

Nearby

Air Quality

  Air Quality AQ Index Pollutant
Not available.

Snow Depth

Station Depth Elevation

Earthquake Activity

City Distance Mag. Time & Date
Minimum magnitude displayed is 2.5.

Coastal Water Temperatures

Place Temperature

Stations

Nearby Weather Stations

Station Location Temp. Windchill Dew Point Humidity Wind Precip. Elev Updated Type